Time;durP1;ratioP1;P1;durP2;ratioP2;P2;SDS_P1;SDS_P2;PMS_P1;PMS_P2;Temp;Humidity;BMP_temperature;BMP_pressure;BME280_temperature;BME280_humidity;BME280_pressure;Samples;Min_cycle;Max_cycle;Signal;HPM_P1;HPM_P2
2021/03/18 00:01:48;;;;;;;31.80;18.45;;;;;;;1.07;72.75;97192.81;1857819;77;25716;-83
2021/03/18 00:04:19;;;;;;;32.55;19.73;;;;;;;1.08;72.69;97196.31;1857753;77;26223;-83
2021/03/18 00:06:48;;;;;;;37.53;20.57;;;;;;;1.12;72.54;97192.32;1857939;77;25715;-83
2021/03/18 00:09:20;;;;;;;37.85;21.87;;;;;;;1.18;72.59;97190.38;1857751;77;27492;-83
2021/03/18 00:11:51;;;;;;;29.98;18.50;;;;;;;1.24;72.54;97188.40;1857872;77;26098;-84
2021/03/18 00:14:24;;;;;;;40.05;21.77;;;;;;;1.28;72.46;97193.75;1857896;77;25634;-84
2021/03/18 00:16:51;;;;;;;34.73;21.85;;;;;;;1.25;72.42;97188.73;1857828;77;25668;-84
2021/03/18 00:19:20;;;;;;;37.95;22.45;;;;;;;1.17;72.53;97187.87;1857708;77;25671;-84
2021/03/18 00:21:48;;;;;;;39.05;23.25;;;;;;;1.12;72.75;97189.66;1857717;77;28466;-83
2021/03/18 00:24:16;;;;;;;38.63;24.43;;;;;;;1.15;72.88;97189.36;1857555;77;25706;-84
2021/03/18 00:26:44;;;;;;;38.58;23.47;;;;;;;1.21;72.94;97195.88;1857617;77;25750;-83
2021/03/18 00:29:11;;;;;;;42.00;24.92;;;;;;;1.24;73.04;97184.91;1857744;77;25780;-84
2021/03/18 00:31:38;;;;;;;39.55;23.92;;;;;;;1.28;73.04;97187.10;1857763;77;25725;-84
2021/03/18 00:34:06;;;;;;;43.63;25.27;;;;;;;1.32;73.04;97184.97;1857756;77;27521;-83
2021/03/18 00:36:33;;;;;;;41.77;23.50;;;;;;;1.34;73.05;97181.63;1857559;77;25725;-84
2021/03/18 00:39:04;;;;;;;42.70;24.10;;;;;;;1.35;73.00;97188.12;1857151;77;25718;-83
2021/03/18 00:41:31;;;;;;;38.20;22.85;;;;;;;1.33;73.05;97187.44;1856934;77;25783;-85
2021/03/18 00:43:59;;;;;;;43.40;24.07;;;;;;;1.32;73.06;97182.31;1857211;77;25759;-84
2021/03/18 00:46:26;;;;;;;39.05;22.42;;;;;;;1.30;73.20;97186.95;1857086;77;27353;-84
2021/03/18 00:48:53;;;;;;;35.00;21.60;;;;;;;1.21;73.21;97179.93;1857112;77;25637;-84
2021/03/18 00:51:22;;;;;;;38.55;23.38;;;;;;;1.12;73.29;97179.03;1857155;77;25724;-84
2021/03/18 00:53:50;;;;;;;54.10;31.10;;;;;;;1.05;73.37;97176.19;1857078;77;25775;-84
2021/03/18 00:56:21;;;;;;;48.70;26.02;;;;;;;1.04;73.54;97175.84;1857176;77;25652;-84
2021/03/18 00:58:49;;;;;;;41.75;22.87;;;;;;;1.08;73.63;97178.53;1857044;77;27555;-84
2021/03/18 01:01:21;;;;;;;35.48;21.73;;;;;;;1.03;73.64;97171.52;1856919;77;25697;-85
2021/03/18 01:03:49;;;;;;;35.00;21.25;;;;;;;1.00;73.64;97170.98;1857198;77;25761;-84
2021/03/18 01:06:28;;;;;;;33.02;20.55;;;;;;;0.99;73.72;97171.48;1857131;76;26268;-84
2021/03/18 01:08:59;;;;;;;33.10;20.20;;;;;;;0.99;73.71;97169.31;1857140;77;26175;-84
2021/03/18 01:11:34;;;;;;;34.53;18.98;;;;;;;0.96;73.70;97163.84;1857241;77;28372;-85
2021/03/18 01:14:06;;;;;;;30.80;20.00;;;;;;;0.95;73.66;97160.84;1856990;77;25700;-84
2021/03/18 01:16:52;;;;;;;35.08;20.75;;;;;;;0.93;73.75;97161.50;1857254;77;25706;-84
2021/03/18 01:19:21;;;;;;;38.48;21.02;;;;;;;0.94;73.79;97160.51;1857137;77;26201;-84
2021/03/18 01:21:54;;;;;;;35.68;20.88;;;;;;;0.96;73.78;97163.84;1857087;76;25781;-84
2021/03/18 01:24:21;;;;;;;36.33;21.40;;;;;;;0.99;73.77;97163.51;1856728;77;27497;-85
2021/03/18 01:26:49;;;;;;;36.28;21.05;;;;;;;1.01;73.78;97157.55;1856986;77;26362;-84
2021/03/18 01:29:16;;;;;;;33.20;19.52;;;;;;;1.04;73.79;97157.23;1857116;77;25740;-85
2021/03/18 01:31:44;;;;;;;31.90;18.40;;;;;;;1.04;73.78;97160.39;1856997;77;25755;-84
2021/03/18 01:34:12;;;;;;;32.05;18.70;;;;;;;1.05;73.78;97154.92;1857118;77;26249;-85
2021/03/18 01:36:40;;;;;;;32.95;19.73;;;;;;;1.05;73.75;97154.92;1856970;77;26697;-84
2021/03/18 01:39:08;;;;;;;30.23;19.25;;;;;;;1.06;73.72;97159.73;1856968;77;25778;-84
2021/03/18 01:41:36;;;;;;;34.18;20.75;;;;;;;1.05;73.66;97156.74;1857139;77;25708;-84
2021/03/18 01:44:05;;;;;;;37.63;22.58;;;;;;;1.04;73.71;97157.23;1857069;77;25864;-84
2021/03/18 01:46:33;;;;;;;34.33;20.68;;;;;;;1.06;73.72;97159.25;1857111;77;26219;-84
2021/03/18 01:49:01;;;;;;;33.18;18.20;;;;;;;1.12;73.70;97164.41;1856985;76;27590;-84
2021/03/18 01:51:28;;;;;;;24.63;16.97;;;;;;;1.08;73.62;97154.61;1856953;76;25753;-84
2021/03/18 01:53:55;;;;;;;25.68;16.48;;;;;;;1.08;73.57;97158.59;1857005;77;25659;-84
2021/03/18 01:56:23;;;;;;;29.57;18.20;;;;;;;1.08;73.64;97156.44;1856982;77;26427;-83
2021/03/18 01:58:50;;;;;;;29.98;18.60;;;;;;;1.06;73.65;97147.78;1857075;77;25773;-84
2021/03/18 02:01:19;;;;;;;31.87;19.37;;;;;;;1.05;73.68;97157.58;1824202;77;27601;-83
2021/03/18 02:03:47;;;;;;;33.35;18.90;;;;;;;1.05;73.69;97162.89;1856990;76;26167;-85
2021/03/18 02:06:15;;;;;;;23.55;15.35;;;;;;;1.06;73.70;97155.26;1857079;77;25693;-84
2021/03/18 02:08:42;;;;;;;24.75;16.10;;;;;;;1.02;73.42;97161.88;1856966;76;25791;-85
2021/03/18 02:11:09;;;;;;;24.95;14.03;;;;;;;1.01;73.36;97152.23;1857065;77;25813;-84
2021/03/18 02:13:37;;;;;;;24.63;15.38;;;;;;;1.00;73.35;97163.84;1856977;77;27469;-84
2021/03/18 02:16:12;;;;;;;23.75;13.65;;;;;;;0.95;73.44;97163.50;1856911;77;25764;-84
2021/03/18 02:19:13;;;;;;;20.50;13.08;;;;;;;0.89;73.34;97162.79;1857071;77;25783;-84
2021/03/18 02:22:11;;;;;;;20.27;12.95;;;;;;;0.86;73.42;97163.09;1811040;79;26218;-84
2021/03/18 02:28:26;;;;;;;24.07;14.60;;;;;;;0.76;73.26;97170.34;1810276;78;34804;-83
2021/03/18 02:31:05;;;;;;;24.25;14.28;;;;;;;0.69;73.20;97175.95;1796784;79;25732;-83
2021/03/18 02:33:43;;;;;;;23.83;14.75;;;;;;;0.70;73.26;97170.98;1796768;79;27705;-83
2021/03/18 02:36:20;;;;;;;23.57;15.15;;;;;;;0.72;73.23;97171.14;1795825;79;26258;-83
2021/03/18 02:38:58;;;;;;;24.77;14.85;;;;;;;0.75;73.11;97169.16;1796559;79;25778;-83
2021/03/18 02:41:30;;;;;;;23.90;15.70;;;;;;;0.78;73.02;97171.02;1796380;79;25676;-82
2021/03/18 02:44:05;;;;;;;25.40;15.65;;;;;;;0.78;73.15;97176.83;1796572;79;25745;-83
2021/03/18 02:46:34;;;;;;;22.22;14.87;;;;;;;0.83;73.23;97173.22;1796472;79;26882;-82
2021/03/18 02:49:05;;;;;;;25.32;16.90;;;;;;;0.85;73.28;97176.53;1796087;79;25860;-82
2021/03/18 02:51:35;;;;;;;24.98;16.02;;;;;;;0.88;73.31;97171.75;1796222;79;25774;-82
2021/03/18 02:54:10;;;;;;;26.50;16.57;;;;;;;0.92;73.29;97173.61;1796248;79;25800;-82
2021/03/18 02:56:42;;;;;;;27.17;16.05;;;;;;;0.96;73.29;97180.29;1796220;79;25872;-82
2021/03/18 02:59:13;;;;;;;29.25;15.85;;;;;;;1.02;73.25;97177.82;1795654;79;27680;-83
2021/03/18 03:01:43;;;;;;;25.48;16.35;;;;;;;1.04;73.10;97182.48;1796326;79;26266;-83
2021/03/18 03:04:11;;;;;;;21.97;14.98;;;;;;;1.00;73.10;97174.97;1796390;79;25866;-83
2021/03/18 03:06:40;;;;;;;23.15;15.08;;;;;;;0.97;72.99;97176.11;1796404;79;25789;-83
2021/03/18 03:09:09;;;;;;;22.98;13.95;;;;;;;0.92;72.81;97175.77;1796351;79;25753;-83
2021/03/18 03:11:39;;;;;;;22.58;13.88;;;;;;;0.93;72.67;97180.09;1796371;79;26624;-82
2021/03/18 03:14:09;;;;;;;21.77;13.95;;;;;;;0.93;72.72;97178.77;1796439;79;25753;-83
2021/03/18 03:16:37;;;;;;;20.05;13.28;;;;;;;0.91;72.51;97178.58;1796336;78;25784;-83
2021/03/18 03:19:07;;;;;;;21.80;12.75;;;;;;;0.93;72.35;97181.92;1796230;79;25814;-83
2021/03/18 03:21:36;;;;;;;20.40;13.13;;;;;;;0.91;72.31;97180.75;1796151;79;25820;-83
2021/03/18 03:24:07;;;;;;;19.87;13.58;;;;;;;0.84;72.28;97179.72;1763049;79;28480;-82
2021/03/18 03:26:35;;;;;;;18.57;12.58;;;;;;;0.83;72.41;97183.36;1792622;78;26216;-82
2021/03/18 03:29:03;;;;;;;23.05;13.40;;;;;;;0.84;72.46;97179.72;1787981;80;25718;-82
2021/03/18 03:31:31;;;;;;;22.07;13.78;;;;;;;0.85;72.40;97179.19;1787918;80;25786;-83
2021/03/18 03:33:58;;;;;;;19.20;11.60;;;;;;;0.80;72.30;97178.84;1788021;80;25839;-82
2021/03/18 03:36:25;;;;;;;20.60;12.25;;;;;;;0.79;72.25;97183.33;1787975;80;27557;-83
2021/03/18 03:38:53;;;;;;;19.98;12.18;;;;;;;0.75;72.17;97185.94;1787413;80;25646;-83
2021/03/18 03:41:21;;;;;;;21.55;13.00;;;;;;;0.73;72.20;97183.93;1787379;80;25785;-83
2021/03/18 03:43:48;;;;;;;21.45;12.37;;;;;;;0.74;72.29;97190.91;1787456;79;25834;-83
2021/03/18 03:46:16;;;;;;;18.20;11.08;;;;;;;0.77;72.28;97192.43;1787479;80;25747;-82
2021/03/18 03:48:43;;;;;;;20.97;12.25;;;;;;;0.78;72.26;97196.27;1787437;80;27399;-83
2021/03/18 03:51:10;;;;;;;22.45;13.28;;;;;;;0.75;72.26;97192.58;1787327;80;26243;-82
2021/03/18 03:53:54;;;;;;;25.20;15.13;;;;;;;0.78;72.28;97197.59;1787368;80;25698;-83
2021/03/18 03:56:32;;;;;;;24.67;14.90;;;;;;;0.83;72.28;97190.50;1787441;80;25725;-86
2021/03/18 03:59:07;;;;;;;27.05;14.73;;;;;;;0.88;72.38;97189.02;1787510;80;25674;-85
2021/03/18 04:01:44;;;;;;;21.12;12.90;;;;;;;0.88;72.35;97191.68;1787364;80;28502;-85
2021/03/18 04:04:16;;;;;;;18.85;12.60;;;;;;;0.89;72.27;97196.01;1787383;80;26284;-85
2021/03/18 04:06:45;;;;;;;25.23;13.95;;;;;;;0.91;72.27;97194.03;1787446;80;25706;-85
2021/03/18 04:09:17;;;;;;;19.87;13.72;;;;;;;0.93;72.38;97190.73;1787355;80;25646;-85
2021/03/18 04:11:45;;;;;;;27.93;14.75;;;;;;;0.96;72.42;97187.77;1787536;80;25818;-85
2021/03/18 04:14:14;;;;;;;18.40;12.65;;;;;;;0.97;72.36;97193.89;1787446;80;27598;-84
2021/03/18 04:16:45;;;;;;;22.25;13.83;;;;;;;0.87;72.11;97197.15;1756508;80;25820;-85
2021/03/18 04:19:17;;;;;;;18.75;12.68;;;;;;;0.80;72.03;97200.09;1787341;80;25695;-84
2021/03/18 04:21:49;;;;;;;18.42;11.80;;;;;;;0.76;72.07;97198.24;1787420;80;25774;-85
2021/03/18 04:24:19;;;;;;;19.12;11.85;;;;;;;0.68;71.94;97196.37;1787435;80;25852;-85
2021/03/18 04:26:48;;;;;;;19.42;12.95;;;;;;;0.69;72.03;97198.53;1787483;79;28069;-85
2021/03/18 04:29:16;;;;;;;17.98;12.35;;;;;;;0.68;72.06;97196.86;1787550;79;25626;-85
2021/03/18 04:31:44;;;;;;;17.77;12.35;;;;;;;0.67;72.00;97201.83;1787660;78;25336;-84
2021/03/18 04:34:16;;;;;;;21.25;13.48;;;;;;;0.59;72.04;97192.48;1787735;80;26141;-83
2021/03/18 04:36:45;;;;;;;22.95;12.43;;;;;;;0.57;72.02;97195.78;1787833;79;25757;-83
2021/03/18 04:39:14;;;;;;;21.60;13.28;;;;;;;0.51;72.04;97192.40;1787604;80;26854;-82
2021/03/18 04:41:42;;;;;;;20.23;13.58;;;;;;;0.49;72.21;97196.53;1787644;80;26394;-83
2021/03/18 04:44:11;;;;;;;25.17;14.87;;;;;;;0.49;72.18;97197.86;1752409;80;25747;-83
2021/03/18 04:46:42;;;;;;;26.10;14.38;;;;;;;0.50;72.15;97205.34;1752486;80;25918;-82
2021/03/18 04:49:10;;;;;;;21.87;13.58;;;;;;;0.50;72.18;97201.35;1787978;80;25764;-83
2021/03/18 04:51:37;;;;;;;22.35;14.55;;;;;;;0.46;72.18;97198.69;1787614;80;27482;-84
2021/03/18 04:54:05;;;;;;;23.83;14.90;;;;;;;0.51;72.31;97202.53;1787563;80;25798;-83
2021/03/18 04:56:33;;;;;;;23.12;14.93;;;;;;;0.55;72.32;97199.08;1787685;79;25773;-84
2021/03/18 04:59:01;;;;;;;24.50;15.15;;;;;;;0.58;72.26;97202.77;1787611;79;25699;-83
2021/03/18 05:01:30;;;;;;;24.82;16.25;;;;;;;0.57;72.33;97205.92;1787758;80;25675;-83
2021/03/18 05:03:59;;;;;;;25.60;16.32;;;;;;;0.61;72.38;97205.92;1787691;80;28520;-83
2021/03/18 05:06:29;;;;;;;31.90;17.52;;;;;;;0.66;72.48;97207.64;1787513;80;25765;-83
2021/03/18 05:08:57;;;;;;;28.92;17.02;;;;;;;0.65;72.48;97207.80;1787639;79;25823;-83
2021/03/18 05:11:25;;;;;;;25.12;15.38;;;;;;;0.71;72.54;97207.19;1787695;80;25842;-84
2021/03/18 05:13:54;;;;;;;28.60;17.42;;;;;;;0.76;72.55;97210.20;1787695;80;25745;-83
2021/03/18 05:16:23;;;;;;;29.30;19.52;;;;;;;0.72;72.58;97214.17;1787656;78;28422;-83
2021/03/18 05:18:51;;;;;;;28.38;17.77;;;;;;;0.74;72.72;97214.83;1787484;78;26120;-83
2021/03/18 05:21:19;;;;;;;29.27;18.50;;;;;;;0.73;72.76;97213.16;1787627;80;25860;-83
2021/03/18 05:23:47;;;;;;;28.90;18.50;;;;;;;0.77;72.80;97212.36;1787493;80;25382;-83
2021/03/18 05:26:14;;;;;;;32.67;19.92;;;;;;;0.80;72.83;97212.89;1787290;80;25403;-83
2021/03/18 05:28:41;;;;;;;27.22;17.25;;;;;;;0.83;72.85;97213.92;1787328;78;27759;-85
2021/03/18 05:31:08;;;;;;;30.20;16.82;;;;;;;0.87;72.85;97220.57;1787359;80;25808;-83
2021/03/18 05:33:36;;;;;;;33.98;18.07;;;;;;;0.88;72.74;97221.41;1787513;80;25883;-86
2021/03/18 05:36:03;;;;;;;23.12;15.18;;;;;;;0.86;72.71;97215.41;1787600;80;25712;-83
2021/03/18 05:38:31;;;;;;;25.52;15.88;;;;;;;0.87;72.59;97221.90;1787544;78;25737;-83
2021/03/18 05:40:59;;;;;;;26.25;15.83;;;;;;;0.86;72.51;97217.57;1787685;78;27501;-83
2021/03/18 05:43:27;;;;;;;24.23;16.70;;;;;;;0.84;72.53;97215.59;1787448;80;26370;-83
2021/03/18 05:45:54;;;;;;;24.90;15.55;;;;;;;0.83;72.43;97219.23;1787637;80;25813;-84
2021/03/18 05:48:22;;;;;;;20.68;14.30;;;;;;;0.82;72.31;97220.22;1787560;80;25679;-83
2021/03/18 05:50:51;;;;;;;25.52;15.20;;;;;;;0.81;72.26;97222.53;1787609;80;25849;-83
2021/03/18 05:53:20;;;;;;;23.73;14.68;;;;;;;0.79;72.34;97218.36;1787592;80;27497;-84
2021/03/18 05:55:48;;;;;;;22.50;15.48;;;;;;;0.74;72.28;97222.80;1787388;80;25737;-84
2021/03/18 05:58:16;;;;;;;23.95;15.78;;;;;;;0.79;72.31;97224.51;1787675;80;25923;-84
2021/03/18 06:00:43;;;;;;;20.92;13.58;;;;;;;0.73;71.95;97230.42;1787583;80;25826;-83
2021/03/18 06:03:11;;;;;;;26.23;14.35;;;;;;;0.69;71.99;97229.92;1787626;80;25816;-84
2021/03/18 06:05:39;;;;;;;22.35;15.20;;;;;;;0.68;71.92;97227.41;1787642;80;28814;-83
2021/03/18 06:08:09;;;;;;;23.62;15.88;;;;;;;0.69;72.10;97227.27;1787403;80;25751;-83
2021/03/18 06:10:36;;;;;;;19.30;13.28;;;;;;;0.70;71.97;97234.25;1787549;79;25885;-83
2021/03/18 06:13:04;;;;;;;22.07;14.60;;;;;;;0.68;71.83;97230.07;1787633;80;26124;-84
2021/03/18 06:15:32;;;;;;;22.00;14.00;;;;;;;0.61;71.78;97225.02;1787547;80;25735;-83
2021/03/18 06:17:59;;;;;;;22.52;14.18;;;;;;;0.56;71.85;97232.63;1787705;80;27488;-84
2021/03/18 06:20:30;;;;;;;23.92;15.65;;;;;;;0.57;72.03;97232.48;1787515;79;25818;-84
2021/03/18 06:23:00;;;;;;;22.77;15.15;;;;;;;0.59;72.15;97236.31;1787591;79;26338;-84
2021/03/18 06:25:37;;;;;;;24.95;15.98;;;;;;;0.64;72.13;97240.66;1787540;80;26202;-84
2021/03/18 06:28:27;;;;;;;21.27;15.13;;;;;;;0.67;72.24;97243.02;1787558;78;25806;-83
2021/03/18 06:31:15;;;;;;;19.32;12.98;;;;;;;0.73;72.08;97248.53;1787614;79;28395;-83
2021/03/18 06:33:52;;;;;;;22.70;14.53;;;;;;;0.76;71.85;97246.55;1787613;79;25781;-83
2021/03/18 06:36:34;;;;;;;23.60;14.47;;;;;;;0.75;71.71;97259.00;1787536;80;25743;-84
2021/03/18 06:39:06;;;;;;;27.85;14.15;;;;;;;0.78;71.59;97258.70;1787598;80;26540;-84
2021/03/18 06:41:41;;;;;;;25.88;15.80;;;;;;;0.82;71.46;97259.24;1787668;80;25779;-83
2021/03/18 06:44:25;;;;;;;24.25;14.28;;;;;;;0.83;71.41;97252.45;1787655;80;27560;-83
2021/03/18 06:46:56;;;;;;;21.00;12.43;;;;;;;0.87;71.33;97256.45;1754921;81;25745;-84
2021/03/18 06:49:26;;;;;;;22.10;14.75;;;;;;;0.90;71.26;97261.45;1787520;80;25721;-83
2021/03/18 06:52:09;;;;;;;24.05;14.43;;;;;;;0.86;71.16;97260.09;1787611;79;26458;-83
2021/03/18 06:54:44;;;;;;;24.43;15.35;;;;;;;0.93;71.39;97267.80;1787642;80;25702;-83
2021/03/18 06:57:18;;;;;;;25.95;16.25;;;;;;;0.96;71.41;97263.52;1787613;79;26828;-83
2021/03/18 06:59:46;;;;;;;18.15;13.22;;;;;;;0.98;71.53;97261.51;1786416;80;26228;-83
2021/03/18 07:02:19;;;;;;;20.37;13.18;;;;;;;0.98;71.16;97259.34;1787554;80;25829;-83
2021/03/18 07:04:55;;;;;;;20.52;13.55;;;;;;;0.99;71.05;97266.33;1787572;79;25749;-83
2021/03/18 07:07:26;;;;;;;21.45;14.28;;;;;;;0.98;71.01;97269.48;1787640;79;25795;-83
2021/03/18 07:09:57;;;;;;;28.50;15.63;;;;;;;1.01;71.16;97269.18;1787551;79;28371;-82
2021/03/18 07:12:32;;;;;;;23.30;13.97;;;;;;;1.11;71.17;97265.09;1787762;80;25697;-85
2021/03/18 07:15:01;;;;;;;21.45;14.10;;;;;;;1.17;70.71;97266.30;1787777;79;25830;-84
2021/03/18 07:17:35;;;;;;;28.45;15.80;;;;;;;1.19;70.54;97261.67;1787769;79;26274;-84
2021/03/18 07:20:21;;;;;;;32.90;17.82;;;;;;;1.16;70.49;97263.30;1787691;79;25848;-84
2021/03/18 07:22:55;;;;;;;21.15;14.13;;;;;;;1.24;70.48;97262.02;1715210;82;27572;-85
2021/03/18 07:25:29;;;;;;;21.37;14.83;;;;;;;1.32;70.17;97264.75;1715012;83;26289;-85
2021/03/18 07:28:02;;;;;;;19.80;13.93;;;;;;;1.38;69.97;97269.42;1716953;83;25821;-83
2021/03/18 07:30:34;;;;;;;19.82;12.65;;;;;;;1.45;69.84;97268.62;1720413;83;25899;-84
2021/03/18 07:33:05;;;;;;;21.15;13.95;;;;;;;1.45;69.63;97271.28;1720522;83;25889;-86
2021/03/18 07:35:34;;;;;;;21.70;13.60;;;;;;;1.46;69.66;97266.80;1720210;83;27706;-85
2021/03/18 07:38:02;;;;;;;19.98;13.28;;;;;;;1.53;69.52;97267.85;1720202;83;25912;-85
2021/03/18 07:40:30;;;;;;;19.82;11.97;;;;;;;1.57;69.43;97264.39;1720325;83;25798;-84
2021/03/18 07:43:00;;;;;;;21.73;12.47;;;;;;;1.59;69.32;97271.19;1720292;83;25877;-84
2021/03/18 07:45:28;;;;;;;28.98;13.68;;;;;;;1.65;69.32;97269.73;1720298;82;25791;-84
2021/03/18 07:47:59;;;;;;;17.70;11.70;;;;;;;1.73;69.27;97269.77;1720211;83;27718;-84
2021/03/18 07:50:32;;;;;;;22.87;13.65;;;;;;;1.81;69.23;97269.30;1720335;83;25855;-84
2021/03/18 07:53:01;;;;;;;18.90;12.55;;;;;;;1.93;69.00;97274.36;1720341;83;25830;-86
2021/03/18 07:55:32;;;;;;;23.50;15.45;;;;;;;2.01;69.02;97270.39;1720277;83;25772;-85
2021/03/18 07:58:02;;;;;;;20.25;12.55;;;;;;;2.03;69.04;97267.91;1720540;83;25945;-85
2021/03/18 08:00:33;;;;;;;18.82;11.40;;;;;;;2.11;68.46;97268.41;1771548;80;27500;-84
2021/03/18 08:03:24;;;;;;;15.50;10.95;;;;;;;2.21;68.11;97269.11;1787897;80;25998;-85
2021/03/18 08:05:52;;;;;;;17.37;11.38;;;;;;;2.21;67.99;97267.77;1768379;80;25730;-85
2021/03/18 08:08:36;;;;;;;16.73;10.65;;;;;;;2.25;68.07;97269.12;1787922;80;26540;-85
2021/03/18 08:11:15;;;;;;;18.80;14.10;;;;;;;2.25;67.85;97262.97;1787925;80;25754;-85
2021/03/18 08:13:45;;;;;;;21.15;14.15;;;;;;;2.18;67.60;97268.09;1787817;80;26029;-86
2021/03/18 08:16:31;;;;;;;17.92;12.35;;;;;;;2.24;67.63;97266.13;1787788;80;25369;-85
2021/03/18 08:19:01;;;;;;;17.55;12.20;;;;;;;2.25;67.51;97274.45;1787885;80;25743;-84
2021/03/18 08:21:42;;;;;;;19.95;12.80;;;;;;;2.26;67.54;97278.79;1787881;78;25749;-84
2021/03/18 08:24:14;;;;;;;18.73;11.15;;;;;;;2.24;67.48;97276.78;1788019;80;26216;-85
2021/03/18 08:27:06;;;;;;;17.48;11.63;;;;;;;2.26;67.48;97277.95;1748865;81;32662;-84
2021/03/18 08:29:46;;;;;;;17.42;11.43;;;;;;;2.20;67.36;97273.26;1753256;81;25807;-85
2021/03/18 08:32:31;;;;;;;20.05;11.83;;;;;;;2.18;67.04;97270.75;1753130;81;25668;-86
2021/03/18 08:35:02;;;;;;;24.37;13.05;;;;;;;2.25;67.02;97263.80;1753209;81;26703;-85
2021/03/18 08:37:45;;;;;;;39.63;14.90;;;;;;;2.38;67.16;97272.16;1722890;83;25765;-84
2021/03/18 08:40:23;;;;;;;21.65;11.90;;;;;;;2.69;67.29;97270.19;1753280;81;27550;-84
2021/03/18 08:42:53;;;;;;;28.90;13.35;;;;;;;2.99;67.28;97265.55;1753212;81;25836;-84
2021/03/18 08:45:27;;;;;;;16.42;10.25;;;;;;;3.06;66.74;97263.86;1753131;81;25741;-84
2021/03/18 08:47:59;;;;;;;19.07;11.20;;;;;;;3.06;66.37;97263.86;1753231;81;25809;-84
2021/03/18 08:50:32;;;;;;;14.33;9.83;;;;;;;3.08;65.88;97263.20;1753049;81;25651;-85
2021/03/18 08:53:02;;;;;;;15.13;10.78;;;;;;;3.09;65.78;97266.70;1721639;82;28457;-85
2021/03/18 08:55:42;;;;;;;16.87;11.28;;;;;;;3.04;65.68;97269.86;1753203;81;25602;-85
2021/03/18 08:58:11;;;;;;;20.65;12.75;;;;;;;3.04;65.54;97276.52;1753342;81;25715;-86
2021/03/18 09:00:39;;;;;;;23.62;14.93;;;;;;;3.02;65.64;97275.85;1753174;81;25718;-85
2021/03/18 09:03:08;;;;;;;18.98;10.90;;;;;;;2.88;65.87;97272.55;1753273;81;25683;-85
2021/03/18 09:05:35;;;;;;;16.60;9.15;;;;;;;2.72;65.80;97277.86;1753179;81;28721;-85
2021/03/18 09:08:05;;;;;;;14.63;9.78;;;;;;;2.40;65.25;97272.00;1721654;83;25644;-85
2021/03/18 09:10:36;;;;;;;17.77;9.43;;;;;;;2.30;65.56;97269.95;1753255;81;25828;-85
2021/03/18 09:13:16;;;;;;;10.03;7.30;;;;;;;2.21;65.61;97271.77;1721560;82;25837;-85
2021/03/18 09:15:48;;;;;;;11.00;6.05;;;;;;;2.29;65.58;97273.64;1753181;81;25824;-85
2021/03/18 09:18:29;;;;;;;9.65;5.92;;;;;;;2.70;65.90;97274.52;1721493;82;27498;-85
2021/03/18 09:21:00;;;;;;;6.55;4.30;;;;;;;3.00;65.03;97264.55;1753032;81;25858;-85
2021/03/18 09:23:34;;;;;;;13.95;9.90;;;;;;;3.10;63.93;97279.03;1721881;83;25713;-83
2021/03/18 09:26:06;;;;;;;19.17;13.00;;;;;;;3.06;64.26;97277.69;1753302;81;26477;-84
2021/03/18 09:28:41;;;;;;;17.45;12.28;;;;;;;2.97;64.52;97279.54;1753054;81;25703;-86
2021/03/18 09:31:09;;;;;;;14.68;10.60;;;;;;;2.90;64.50;97271.36;1787763;79;28417;-85
2021/03/18 09:33:41;;;;;;;13.65;9.43;;;;;;;2.83;64.46;97281.53;1787471;79;26658;-84
2021/03/18 09:36:22;;;;;;;18.92;11.65;;;;;;;2.80;64.30;97277.85;1787671;80;25485;-85
2021/03/18 09:39:11;;;;;;;16.10;10.38;;;;;;;2.84;64.40;97285.86;1787590;79;25590;-85
2021/03/18 09:41:45;;;;;;;15.75;9.85;;;;;;;2.90;64.14;97278.52;1787711;80;25794;-84
2021/03/18 09:44:17;;;;;;;18.62;10.45;;;;;;;2.85;64.29;97283.53;1787725;79;28456;-84
2021/03/18 09:46:52;;;;;;;14.65;9.05;;;;;;;2.79;64.62;97277.02;1787605;80;26112;-84
2021/03/18 09:49:30;;;;;;;20.17;12.03;;;;;;;2.70;64.43;97281.19;1787473;80;25730;-86
2021/03/18 09:52:00;;;;;;;54.67;25.08;;;;;;;2.67;64.75;97276.17;1752026;80;26172;-84
2021/03/18 09:54:29;;;;;;;36.98;20.43;;;;;;;2.81;64.73;97276.86;1787686;80;25740;-85
2021/03/18 09:57:03;;;;;;;16.80;11.28;;;;;;;3.05;64.77;97269.36;1787651;80;27691;-85
2021/03/18 09:59:31;;;;;;;15.65;10.25;;;;;;;3.14;64.64;97267.84;1787505;79;25697;-86
2021/03/18 10:01:58;;;;;;;16.27;10.05;;;;;;;3.06;64.55;97266.53;1787608;79;26176;-85
2021/03/18 10:04:26;;;;;;;15.50;10.58;;;;;;;3.31;64.82;97267.84;1787593;79;25725;-84
2021/03/18 10:06:57;;;;;;;14.83;9.70;;;;;;;3.64;64.56;97260.08;1787615;80;25323;-85
2021/03/18 10:09:34;;;;;;;13.03;8.18;;;;;;;3.82;64.30;97258.03;1787597;79;27460;-85
2021/03/18 10:12:10;;;;;;;14.05;9.10;;;;;;;3.86;63.84;97262.03;1787554;79;26388;-84
2021/03/18 10:14:54;;;;;;;14.30;8.30;;;;;;;3.52;63.61;97262.78;1787590;80;25724;-85
2021/03/18 10:17:29;;;;;;;14.65;9.35;;;;;;;3.50;63.36;97255.47;1776143;78;25944;-84
2021/03/18 10:20:01;;;;;;;15.75;9.40;;;;;;;3.31;63.24;97266.50;1787614;79;25734;-84
2021/03/18 10:22:39;;;;;;;19.52;10.72;;;;;;;3.19;63.51;97269.52;1787824;79;28411;-85
2021/03/18 10:25:15;;;;;;;19.70;10.63;;;;;;;3.11;63.36;97258.87;1787607;80;25851;-85
2021/03/18 10:27:49;;;;;;;14.68;8.95;;;;;;;3.10;63.33;97263.87;1787503;80;25288;-85
2021/03/18 10:30:23;;;;;;;16.32;9.00;;;;;;;3.00;63.27;97256.55;1787685;78;25730;-84
2021/03/18 10:33:22;;;;;;;12.75;7.37;;;;;;;3.03;63.33;97253.52;1787632;80;25863;-84
2021/03/18 10:35:58;;;;;;;14.20;8.05;;;;;;;3.00;63.53;97253.88;1787626;80;28381;-85
2021/03/18 10:38:36;;;;;;;13.55;8.90;;;;;;;3.15;63.56;97250.01;1787497;80;25721;-85
2021/03/18 10:41:12;;;;;;;14.75;8.38;;;;;;;3.30;63.19;97248.83;1787391;80;25787;-85
2021/03/18 10:43:43;;;;;;;9.73;6.22;;;;;;;3.30;63.15;97238.16;1787575;79;25642;-85
2021/03/18 10:46:17;;;;;;;16.32;7.47;;;;;;;3.33;62.69;97247.16;1787656;79;25785;-86
2021/03/18 10:48:49;;;;;;;13.60;6.55;;;;;;;3.33;62.59;97235.16;1787695;80;27504;-84
2021/03/18 10:51:19;;;;;;;13.10;6.50;;;;;;;3.21;62.25;97238.18;1787739;80;25733;-85
2021/03/18 10:53:49;;;;;;;9.35;6.20;;;;;;;3.21;62.12;97242.68;1787803;79;25729;-84
2021/03/18 10:56:22;;;;;;;12.40;6.42;;;;;;;3.24;62.09;97237.84;1787818;79;25773;-84
2021/03/18 10:58:51;;;;;;;10.90;5.72;;;;;;;3.28;62.28;97233.48;1787889;79;25996;-84
2021/03/18 11:01:25;;;;;;;9.48;6.33;;;;;;;3.28;62.05;97232.98;1787688;79;28713;-83
2021/03/18 11:04:07;;;;;;;15.80;8.20;;;;;;;3.28;61.98;97226.81;1787698;79;26428;-83
2021/03/18 11:06:34;;;;;;;9.73;5.97;;;;;;;3.28;61.55;97233.48;1787808;79;25785;-84
2021/03/18 11:09:02;;;;;;;5.45;3.58;;;;;;;3.24;61.72;97241.85;1752522;80;26353;-85
2021/03/18 11:11:33;;;;;;;5.33;3.00;;;;;;;3.00;61.62;97243.72;1787721;80;25890;-83
2021/03/18 11:14:12;;;;;;;5.15;2.95;;;;;;;2.51;62.03;97253.86;1787650;80;27773;-83
2021/03/18 11:16:41;;;;;;;3.55;2.40;;;;;;;2.36;63.01;97248.84;1787740;80;26063;-84
2021/03/18 11:19:15;;;;;;;6.92;3.42;;;;;;;2.41;63.33;97247.86;1787813;79;25754;-84
2021/03/18 11:21:46;;;;;;;4.75;3.72;;;;;;;2.45;63.57;97242.52;1787640;80;25822;-84
2021/03/18 11:24:20;;;;;;;5.47;3.72;;;;;;;2.46;63.70;97239.36;1787620;79;26065;-84
2021/03/18 11:27:00;;;;;;;8.70;4.37;;;;;;;2.70;63.99;97230.55;1787549;79;27496;-84
2021/03/18 11:29:36;;;;;;;12.95;6.25;;;;;;;3.06;64.60;97227.86;1787153;78;25300;-83
2021/03/18 11:32:08;;;;;;;11.85;6.12;;;;;;;3.53;64.27;97219.91;1787181;80;25651;-83
2021/03/18 11:34:40;;;;;;;15.58;7.75;;;;;;;3.72;63.62;97208.52;1787371;80;25702;-83
2021/03/18 11:37:10;;;;;;;;;;;;;;;3.84;63.29;97210.63;1790126;80;25650;-83
2021/03/18 11:39:39;;;;;;;11.70;5.22;;;;;;;3.89;62.93;97216.27;1787448;80;29553;-83
2021/03/18 11:42:07;;;;;;;8.58;3.27;;;;;;;3.68;62.50;97214.70;1787323;80;25765;-83
2021/03/18 11:44:34;;;;;;;5.55;2.77;;;;;;;3.56;62.63;97216.07;1787410;80;25333;-82
2021/03/18 11:47:05;;;;;;;4.12;1.95;;;;;;;3.43;62.40;97203.77;1787407;80;25713;-82
2021/03/18 11:49:33;;;;;;;3.67;2.10;;;;;;;3.26;62.13;97203.80;1787492;80;25746;-82
2021/03/18 11:52:01;;;;;;;4.12;2.00;;;;;;;3.13;62.23;97195.53;1787437;80;27593;-82